KGMU/GMU METAR and TAF weather

Enter ICAO airport designator
Station Type Date Time Source
KGMU METAR 2024/06/14 00:53 UTC NOAA

KGMU 140053Z 16003KT 10SM CLR 27/17 A3001 RMK AO2 SLP149 T02720167


Station Type Date Time Source
KGMU Decoded METAR 2024/06/14 00:53 UTC NOAA

GREENVILLE DOWNTOWN AIRPORT , SC, United States (KGMU) 34-51N 82-21W 315M
Jun 13, 2024 - 08:53 PM EDT / 2024.06.14 0053 UTC
Wind: from the SSE (160 degrees) at 3 MPH (3 KT):0
Visibility: 10 mile(s):0
Sky conditions: clear
Temperature: 81.0 F (27.2 C)
Dew Point: 62.1 F (16.7 C)
Relative Humidity: 52%
Pressure (altimeter): 30.01 in. Hg (1016 hPa)
ob: KGMU 140053Z 16003KT 10SM CLR 27/17 A3001 RMK AO2 SLP149 T02720167
cycle: 1

Station Type Date Time Source
KGMU TAF 2024/06/13 18:39 UTC NOAA